Time;durP1;ratioP1;P1;durP2;ratioP2;P2;SDS_P1;SDS_P2;PMS_P1;PMS_P2;Temp;Humidity;BMP_temperature;BMP_pressure;BME280_temperature;BME280_humidity;BME280_pressure;Samples;Min_cycle;Max_cycle;Signal;HPM_P1;HPM_P2
2023/12/25 00:01:06;;;;;;;2.27;1.37;;;11.30;62.50;;;12.32;50.19;97243.16;5031462;28;20072;-69
2023/12/25 00:03:34;;;;;;;1.30;0.83;;;11.30;62.50;;;12.33;49.88;97268.00;5034171;28;20045;-70
2023/12/25 00:06:14;;;;;;;1.40;1.13;;;11.20;61.70;;;12.31;50.17;97278.03;5034119;28;20052;-69
2023/12/25 00:08:42;;;;;;;5.57;1.00;;;11.20;62.50;;;12.28;50.24;97262.38;5032731;28;20397;-70
2023/12/25 00:11:10;;;;;;;1.50;0.90;;;11.20;62.70;;;12.20;50.51;97250.78;5034158;28;20053;-70
2023/12/25 00:13:39;;;;;;;3.30;1.33;;;11.10;62.70;;;12.29;50.46;97258.69;5034032;28;20041;-70
2023/12/25 00:16:06;;;;;;;3.43;1.63;;;11.10;63.50;;;12.40;50.13;97239.56;5034246;28;20056;-70
2023/12/25 00:18:34;;;;;;;3.35;0.93;;;11.20;63.50;;;12.48;50.46;97244.81;5033629;28;20037;-70
2023/12/25 00:21:02;;;;;;;1.95;1.08;;;11.20;63.70;;;12.38;49.79;97250.44;5033862;28;20052;-70
2023/12/25 00:23:29;;;;;;;2.03;1.00;;;11.10;63.10;;;12.37;50.36;97246.13;5033815;28;20387;-70
2023/12/25 00:25:57;;;;;;;1.77;1.10;;;11.10;63.50;;;12.39;50.41;97245.94;5033968;28;20052;-71
2023/12/25 00:28:24;;;;;;;5.03;1.30;;;11.10;63.90;;;12.41;50.38;97239.41;5033601;28;20050;-70
2023/12/25 00:30:52;;;;;;;1.73;1.10;;;11.10;64.00;;;12.40;50.48;97260.94;5032027;28;20049;-70
2023/12/25 00:33:20;;;;;;;2.23;0.73;;;11.10;64.10;;;12.34;50.66;97257.16;5032526;28;20045;-70
2023/12/25 00:35:48;;;;;;;1.47;0.97;;;11.10;64.20;;;12.27;50.98;97264.25;5032597;28;20057;-70
2023/12/25 00:38:15;;;;;;;1.47;0.80;;;11.10;64.60;;;12.23;51.18;97264.75;5031846;28;20053;-71
2023/12/25 00:40:43;;;;;;;5.57;1.17;;;11.10;64.80;;;12.26;51.06;97272.41;5032284;28;20054;-70
2023/12/25 00:43:10;;;;;;;2.17;1.10;;;11.10;64.90;;;12.31;50.79;97270.03;5032290;28;20057;-70
2023/12/25 00:45:39;;;;;;;1.63;1.10;;;11.10;64.60;;;12.36;50.74;97272.97;5032449;28;20511;-70
2023/12/25 00:48:06;;;;;;;2.07;1.23;;;11.10;64.50;;;12.24;50.76;97271.78;5033288;28;20061;-70
2023/12/25 00:50:34;;;;;;;1.87;0.93;;;11.10;64.70;;;12.28;51.09;97257.88;5032098;28;20528;-69
2023/12/25 00:53:03;;;;;;;1.97;1.03;;;11.10;64.90;;;12.32;50.76;97255.69;5033329;28;20041;-71
2023/12/25 00:55:32;;;;;;;1.38;0.90;;;11.10;64.80;;;12.32;50.90;97256.50;5032198;28;20056;-71
2023/12/25 00:57:59;;;;;;;1.35;1.10;;;11.10;65.00;;;12.35;50.83;97269.50;5032250;28;20076;-71
2023/12/25 01:00:28;;;;;;;2.93;1.93;;;11.10;65.10;;;12.31;50.82;97265.53;5032795;28;20416;-70
2023/12/25 01:02:56;;;;;;;1.53;0.97;;;11.00;65.20;;;12.34;50.73;97257.16;5030811;28;20045;-70
2023/12/25 01:05:24;;;;;;;2.70;1.27;;;11.00;65.10;;;12.39;51.03;97262.78;5032043;28;20052;-71
2023/12/25 01:07:52;;;;;;;2.43;1.40;;;11.00;65.10;;;12.38;50.72;97257.63;5031036;28;20041;-71
2023/12/25 01:10:20;;;;;;;2.40;1.17;;;11.00;64.60;;;12.41;50.82;97262.59;5033226;28;20041;-71
2023/12/25 01:12:48;;;;;;;2.53;1.00;;;11.00;64.60;;;12.45;50.24;97265.75;5031932;28;20045;-70
2023/12/25 01:15:15;;;;;;;2.00;1.23;;;11.10;64.40;;;12.46;50.23;97270.06;5032357;28;20054;-70
2023/12/25 01:17:43;;;;;;;2.05;0.85;;;11.10;63.80;;;12.27;49.86;97274.91;5024016;28;20064;-71
2023/12/25 01:20:11;;;;;;;3.27;1.30;;;11.00;63.20;;;12.28;50.32;97275.75;5033302;28;20049;-71
2023/12/25 01:22:38;;;;;;;2.97;1.60;;;11.00;63.60;;;12.33;50.38;97262.66;5033092;28;20042;-71
2023/12/25 01:25:07;;;;;;;1.40;1.00;;;11.00;63.90;;;12.33;50.19;97242.16;5031638;28;20055;-71
2023/12/25 01:27:39;;;;;;;3.40;0.90;;;11.10;63.50;;;12.30;50.20;97255.84;5032861;28;20037;-71
2023/12/25 01:30:10;;;;;;;1.50;1.00;;;11.00;63.70;;;12.27;50.27;97260.72;5031764;28;20053;-70
2023/12/25 01:32:38;;;;;;;4.97;1.43;;;11.00;64.00;;;12.20;50.39;97266.78;5031184;28;20497;-72
2023/12/25 01:35:07;;;;;;;0.63;0.60;;;11.00;64.10;;;12.20;50.59;97252.63;5015006;28;20057;-70
2023/12/25 01:37:34;;;;;;;2.03;1.30;;;11.00;64.00;;;12.18;50.24;97258.13;5031239;28;20058;-70
2023/12/25 01:40:03;;;;;;;2.10;1.23;;;10.90;64.10;;;12.10;50.52;97249.38;5032206;28;20046;-71
2023/12/25 01:42:30;;;;;;;1.53;1.10;;;10.90;64.00;;;12.08;50.73;97260.22;5030908;28;20052;-70
2023/12/25 01:44:58;;;;;;;2.20;1.20;;;10.80;64.30;;;12.02;50.71;97255.63;5031104;28;20060;-70
2023/12/25 01:47:26;;;;;;;1.30;0.90;;;10.80;64.50;;;12.02;50.85;97253.78;5030964;28;20045;-70
2023/12/25 01:49:53;;;;;;;2.50;1.13;;;10.70;64.70;;;11.95;50.78;97244.00;5014306;28;20053;-71
2023/12/25 01:52:21;;;;;;;2.33;1.00;;;10.60;64.50;;;11.94;50.76;97245.84;5030987;28;20049;-70
2023/12/25 01:54:49;;;;;;;1.33;1.00;;;10.70;64.50;;;11.96;50.68;97248.31;5032369;28;20037;-70
2023/12/25 01:57:18;;;;;;;3.73;1.17;;;10.60;64.70;;;11.96;50.46;97258.97;5029946;28;20049;-71
2023/12/25 01:59:46;;;;;;;3.47;1.37;;;10.60;64.50;;;11.85;50.61;97240.72;5022425;28;20044;-71
2023/12/25 02:02:13;;;;;;;0.93;0.87;;;10.60;64.30;;;11.85;50.60;97238.06;5030738;28;20417;-71
2023/12/25 02:04:41;;;;;;;2.53;0.70;;;10.60;64.60;;;11.79;51.22;97247.59;5014096;28;20145;-71
2023/12/25 02:07:09;;;;;;;4.00;1.30;;;10.50;65.30;;;11.76;50.67;97247.94;5031971;28;20046;-71
2023/12/25 02:09:36;;;;;;;3.00;1.10;;;10.50;65.40;;;11.77;51.47;97246.94;5030626;28;20497;-71
2023/12/25 02:12:05;;;;;;;1.87;1.03;;;10.50;65.50;;;11.82;51.10;97255.22;5030676;28;20037;-71
2023/12/25 02:14:33;;;;;;;1.30;1.03;;;10.60;65.40;;;11.83;51.00;97260.38;5030486;28;20052;-70
2023/12/25 02:17:01;;;;;;;2.77;1.00;;;10.60;65.30;;;11.79;51.03;97269.75;5014045;28;20520;-70
2023/12/25 02:19:43;;;;;;;3.83;1.70;;;10.50;65.60;;;11.83;51.38;97264.91;5022365;28;20224;-71
2023/12/25 02:22:13;;;;;;;1.00;0.90;;;10.50;66.00;;;11.84;51.07;97263.88;5014867;28;20054;-71
2023/12/25 02:24:51;;;;;;;1.23;0.83;;;10.50;66.10;;;11.76;51.35;97267.44;5029612;28;20049;-71
2023/12/25 02:27:18;;;;;;;1.13;0.90;;;10.50;66.30;;;11.58;52.09;97294.41;5030142;28;20519;-71
2023/12/25 02:29:46;;;;;;;3.00;0.90;;;10.30;66.80;;;11.58;52.27;97275.72;5005683;28;20052;-70
2023/12/25 02:32:14;;;;;;;2.80;1.17;;;10.40;67.20;;;11.63;52.10;97275.19;5030509;28;20535;-70
2023/12/25 02:34:43;;;;;;;1.07;0.60;;;10.30;67.20;;;11.64;51.97;97292.88;5030310;28;20425;-70
2023/12/25 02:37:11;;;;;;;2.13;1.03;;;10.40;66.80;;;11.60;51.93;97270.22;5030189;28;20046;-70
2023/12/25 02:39:39;;;;;;;1.80;0.73;;;10.40;67.20;;;11.68;51.96;97272.84;5029636;28;20628;-69
2023/12/25 02:42:06;;;;;;;3.87;2.00;;;10.40;67.10;;;11.76;51.94;97274.63;5031217;28;20049;-70
2023/12/25 02:44:34;;;;;;;3.03;1.13;;;10.40;66.70;;;11.71;52.24;97267.16;5030344;28;20037;-70
2023/12/25 02:47:02;;;;;;;2.73;1.10;;;10.40;66.70;;;11.71;51.97;97261.81;5030462;28;20072;-69
2023/12/25 02:49:30;;;;;;;3.10;1.20;;;10.40;66.80;;;11.72;51.74;97268.81;5030163;28;20121;-70
2023/12/25 02:51:57;;;;;;;1.37;1.00;;;10.40;66.30;;;11.68;51.93;97267.50;5030043;28;20056;-70
2023/12/25 02:54:25;;;;;;;1.23;0.83;;;10.40;66.30;;;11.61;52.02;97274.53;5029842;28;20076;-69
2023/12/25 02:56:52;;;;;;;2.80;1.10;;;10.30;66.30;;;11.55;51.69;97252.06;5029035;28;20057;-69
2023/12/25 02:59:20;;;;;;;3.57;1.10;;;10.40;66.40;;;11.51;51.87;97249.94;5029824;28;20053;-70
2023/12/25 03:01:49;;;;;;;2.00;0.80;;;10.30;66.50;;;11.55;51.85;97238.75;5029534;28;20077;-69
2023/12/25 03:04:17;;;;;;;1.53;0.90;;;10.30;66.50;;;11.50;51.98;97238.47;5029628;28;20421;-69
2023/12/25 03:06:44;;;;;;;1.77;1.17;;;10.30;66.30;;;11.48;52.07;97234.34;5029587;28;20402;-70
2023/12/25 03:09:12;;;;;;;1.40;0.90;;;10.20;66.40;;;11.48;52.06;97247.66;5029669;28;20053;-70
2023/12/25 03:11:39;;;;;;;2.03;1.00;;;10.20;66.40;;;11.48;51.51;97231.66;5030845;28;20037;-69
2023/12/25 03:14:07;;;;;;;2.03;0.90;;;10.20;65.90;;;11.54;51.57;97222.94;5029402;28;20060;-70
2023/12/25 03:16:35;;;;;;;1.57;0.87;;;10.30;65.70;;;11.52;51.15;97239.13;5029169;28;20128;-69
2023/12/25 03:19:03;;;;;;;1.17;1.00;;;10.30;65.30;;;11.54;51.07;97228.28;5029318;28;20065;-69
2023/12/25 03:21:30;;;;;;;1.03;0.70;;;10.30;65.30;;;11.48;51.18;97227.16;5030577;28;20053;-69
2023/12/25 03:23:58;;;;;;;1.70;1.03;;;10.30;64.60;;;11.53;50.84;97239.94;5029363;28;20559;-69
2023/12/25 03:26:26;;;;;;;1.37;0.93;;;10.30;65.00;;;11.48;51.22;97250.31;5030798;28;20040;-70
2023/12/25 03:28:53;;;;;;;2.37;1.17;;;10.20;64.60;;;11.43;51.23;97240.16;5029313;28;20071;-69
2023/12/25 03:31:21;;;;;;;1.73;1.00;;;10.30;64.40;;;11.53;50.86;97253.28;5029831;28;20050;-69
2023/12/25 03:33:49;;;;;;;1.57;0.80;;;10.30;64.50;;;11.48;50.69;97253.00;5029280;28;20049;-70
2023/12/25 03:36:18;;;;;;;1.00;0.90;;;10.20;63.70;;;11.50;50.76;97242.97;5031607;28;20045;-69
2023/12/25 03:38:46;;;;;;;2.47;1.20;;;10.20;64.80;;;11.55;50.68;97257.41;5034640;28;20071;-69
2023/12/25 03:41:14;;;;;;;0.93;0.87;;;10.20;63.90;;;11.54;50.27;97266.44;5033566;28;20056;-70
2023/12/25 03:43:41;;;;;;;1.47;1.10;;;10.20;63.10;;;11.51;50.60;97263.28;5033376;28;20046;-70
2023/12/25 03:46:09;;;;;;;2.63;1.40;;;10.20;63.70;;;11.51;50.30;97277.44;5034618;28;20139;-69
2023/12/25 03:48:37;;;;;;;2.77;1.00;;;10.20;64.40;;;11.55;50.09;97268.06;5032987;28;20056;-70
2023/12/25 03:51:04;;;;;;;1.27;0.90;;;10.30;63.10;;;11.55;50.28;97261.91;5033658;28;20046;-69
2023/12/25 03:53:33;;;;;;;0.90;0.87;;;10.30;63.50;;;11.61;50.56;97261.22;5033125;28;20042;-69
2023/12/25 03:56:02;;;;;;;1.17;0.90;;;10.40;63.60;;;11.60;49.92;97256.91;5031858;28;20072;-69
2023/12/25 03:58:30;;;;;;;1.00;0.70;;;10.40;62.80;;;11.61;49.86;97243.41;5032764;28;20505;-69
2023/12/25 04:00:58;;;;;;;0.77;0.77;;;10.30;63.00;;;11.62;49.80;97269.03;5026386;28;20057;-69
2023/12/25 04:03:25;;;;;;;1.57;0.90;;;10.40;62.20;;;11.59;49.97;97258.75;5034195;28;20592;-69
2023/12/25 04:05:53;;;;;;;2.07;0.83;;;10.30;63.10;;;11.69;49.96;97261.19;5034062;28;20033;-69
2023/12/25 04:08:22;;;;;;;2.30;0.80;;;10.40;62.90;;;11.70;49.97;97267.34;5034260;28;20037;-69
2023/12/25 04:10:50;;;;;;;1.80;0.80;;;10.40;62.70;;;11.72;49.73;97260.81;5035163;28;20045;-69
2023/12/25 04:13:18;;;;;;;2.17;1.00;;;10.40;62.80;;;11.74;49.65;97269.44;5017232;28;20045;-70
2023/12/25 04:15:47;;;;;;;1.80;0.77;;;10.40;63.10;;;11.63;49.74;97268.03;5032763;28;20045;-69
2023/12/25 04:18:14;;;;;;;1.93;0.97;;;10.40;63.10;;;11.60;50.04;97271.06;5032672;28;20049;-69
2023/12/25 04:20:42;;;;;;;2.33;0.73;;;10.40;63.60;;;11.60;50.59;97276.38;5032793;28;20061;-69
2023/12/25 04:23:10;;;;;;;1.17;0.80;;;10.30;63.80;;;11.67;50.31;97276.53;5032952;28;20053;-69
2023/12/25 04:25:38;;;;;;;1.07;0.90;;;10.30;64.10;;;11.71;50.44;97282.31;5032186;28;20046;-69
2023/12/25 04:28:05;;;;;;;2.53;0.83;;;10.30;64.10;;;11.73;50.14;97274.97;5032294;28;20532;-69
2023/12/25 04:30:33;;;;;;;3.33;1.30;;;10.30;64.10;;;11.82;50.07;97284.56;5033565;28;20417;-70
2023/12/25 04:33:02;;;;;;;2.27;0.87;;;10.40;64.10;;;11.91;49.97;97278.19;5024943;28;20060;-69
2023/12/25 04:35:30;;;;;;;1.87;0.73;;;10.40;64.10;;;12.00;49.93;97276.31;5032629;28;20500;-69
2023/12/25 04:37:58;;;;;;;2.13;1.30;;;10.50;64.00;;;12.05;49.61;97270.44;5033389;28;20045;-69
2023/12/25 04:40:25;;;;;;;2.13;0.77;;;10.50;63.20;;;12.06;49.49;97280.06;5033797;28;20052;-70
2023/12/25 04:42:53;;;;;;;0.83;0.70;;;10.60;63.10;;;12.10;49.11;97276.06;5032287;28;20061;-69
2023/12/25 04:45:21;;;;;;;1.20;0.87;;;10.60;62.90;;;12.10;49.47;97279.56;5032373;28;20046;-69
2023/12/25 04:47:48;;;;;;;0.93;0.73;;;10.60;62.60;;;12.11;49.36;97275.88;5031775;28;20049;-69
2023/12/25 04:50:16;;;;;;;2.73;1.07;;;10.60;62.80;;;12.09;49.07;97285.06;5031978;28;20057;-69
2023/12/25 04:52:44;;;;;;;1.20;0.93;;;10.60;62.10;;;12.06;49.14;97274.75;5033363;28;20049;-69
2023/12/25 04:55:12;;;;;;;0.93;0.83;;;10.50;63.10;;;12.10;49.21;97286.75;5032341;28;20060;-69
2023/12/25 04:57:39;;;;;;;1.77;0.97;;;10.50;63.30;;;12.14;49.65;97285.38;5031193;28;20053;-69
2023/12/25 05:00:08;;;;;;;2.70;1.53;;;10.50;63.60;;;12.15;49.46;97281.69;5031858;28;20520;-69
2023/12/25 05:02:36;;;;;;;3.13;1.43;;;10.60;63.50;;;12.18;49.28;97279.47;5032952;28;20045;-69
2023/12/25 05:05:04;;;;;;;0.83;0.80;;;10.60;63.00;;;12.15;49.00;97273.66;5031880;28;20064;-69
2023/12/25 05:07:31;;;;;;;1.27;0.80;;;10.60;62.50;;;12.15;48.94;97279.00;5023946;28;20421;-69
2023/12/25 05:09:59;;;;;;;1.10;0.83;;;10.50;62.60;;;12.07;49.17;97279.09;5031400;28;20064;-68
2023/12/25 05:12:27;;;;;;;0.87;0.60;;;10.60;62.20;;;12.01;49.44;97269.97;5032850;28;20041;-70
2023/12/25 05:14:55;;;;;;;1.07;0.87;;;10.50;62.80;;;11.99;49.16;97263.97;5031492;28;20046;-71
2023/12/25 05:17:24;;;;;;;1.23;1.13;;;10.50;63.40;;;11.98;49.84;97265.81;5033287;28;20053;-70
2023/12/25 05:19:52;;;;;;;2.23;0.87;;;10.50;63.20;;;12.00;49.48;97246.97;5014778;28;20193;-70
2023/12/25 05:22:20;;;;;;;1.80;0.80;;;10.50;63.60;;;11.95;49.39;97247.50;5031712;28;20049;-70
2023/12/25 05:24:47;;;;;;;1.03;0.80;;;10.40;63.70;;;11.86;49.51;97243.19;5032606;28;20049;-70
2023/12/25 05:27:15;;;;;;;2.23;0.90;;;10.40;64.00;;;11.87;49.88;97252.88;5032876;28;20057;-70
2023/12/25 05:29:43;;;;;;;1.07;0.80;;;10.40;64.00;;;11.87;49.70;97244.88;5032505;28;20044;-70
2023/12/25 05:32:11;;;;;;;1.20;0.50;;;10.40;64.30;;;11.88;49.74;97235.84;5032501;28;20068;-70
2023/12/25 05:34:38;;;;;;;1.10;0.97;;;10.40;64.40;;;11.90;49.81;97254.38;5033434;28;20045;-70
2023/12/25 05:37:06;;;;;;;0.93;0.70;;;10.40;64.60;;;11.90;50.08;97247.19;5024668;28;20057;-70
2023/12/25 05:39:33;;;;;;;1.70;0.70;;;10.30;64.90;;;11.94;50.11;97231.66;5032280;28;20052;-69
2023/12/25 05:42:01;;;;;;;1.20;0.80;;;10.40;65.00;;;11.97;50.00;97237.47;5032204;28;20053;-69
2023/12/25 05:44:29;;;;;;;1.50;1.10;;;10.40;64.60;;;11.97;49.58;97242.81;5031231;28;20045;-69
2023/12/25 05:46:56;;;;;;;1.13;0.80;;;10.40;64.70;;;11.97;49.77;97248.13;5032351;28;20033;-68
2023/12/25 05:49:24;;;;;;;0.73;0.70;;;10.40;64.30;;;11.94;49.71;97259.19;5032035;28;20045;-68
2023/12/25 05:51:52;;;;;;;2.53;0.83;;;10.40;63.60;;;11.94;49.44;97255.66;5032252;28;20052;-68
2023/12/25 05:54:19;;;;;;;3.33;1.00;;;10.40;63.40;;;11.82;49.71;97258.75;5014580;28;20116;-68
2023/12/25 05:56:47;;;;;;;1.10;0.90;;;10.20;63.90;;;11.88;49.93;97262.50;5032107;28;20061;-69
2023/12/25 05:59:15;;;;;;;0.93;0.80;;;10.30;64.20;;;11.92;49.81;97265.69;5029862;28;20041;-70
2023/12/25 06:01:45;;;;;;;1.03;0.70;;;10.30;64.20;;;11.89;49.85;97258.88;5032048;28;20052;-68
2023/12/25 06:04:13;;;;;;;2.00;0.97;;;10.20;64.30;;;11.94;49.60;97266.34;5032137;28;20492;-68
2023/12/25 06:06:40;;;;;;;2.23;0.97;;;10.30;64.40;;;11.96;49.38;97262.50;5014308;28;20037;-68
2023/12/25 06:09:10;;;;;;;1.57;0.90;;;10.30;64.30;;;11.97;49.62;97272.16;5031833;28;20515;-68
2023/12/25 06:11:38;;;;;;;2.47;0.90;;;10.30;64.10;;;11.89;49.32;97272.22;5030591;28;20052;-69
2023/12/25 06:14:06;;;;;;;2.43;0.90;;;10.20;63.90;;;11.84;49.50;97290.56;5032222;28;20409;-69
2023/12/25 06:16:33;;;;;;;1.10;1.00;;;10.20;63.60;;;11.88;49.71;97285.69;5032199;28;20053;-68
2023/12/25 06:19:01;;;;;;;0.93;0.70;;;10.20;63.70;;;11.91;49.36;97290.72;5030354;28;20053;-70
2023/12/25 06:21:29;;;;;;;0.67;0.60;;;10.30;63.40;;;11.88;48.95;97283.03;5031462;28;20289;-70
2023/12/25 06:23:58;;;;;;;0.60;0.60;;;10.30;62.70;;;11.87;49.05;97279.53;5031713;28;20045;-71
2023/12/25 06:26:25;;;;;;;1.00;0.90;;;10.30;63.00;;;11.89;49.35;97280.22;5014268;28;20037;-70
2023/12/25 06:28:53;;;;;;;1.80;0.87;;;10.30;63.10;;;11.93;49.18;97278.84;5030133;28;20489;-71
2023/12/25 06:31:21;;;;;;;2.47;1.40;;;10.40;63.00;;;11.98;49.07;97272.97;5031702;28;20046;-70
2023/12/25 06:33:48;;;;;;;1.33;1.00;;;10.40;63.20;;;11.95;48.50;97271.50;5031132;28;20065;-69
2023/12/25 06:36:16;;;;;;;0.70;0.70;;;10.40;61.90;;;11.94;48.92;97283.19;5031773;28;20072;-70
2023/12/25 06:38:44;;;;;;;0.80;0.73;;;10.40;62.20;;;11.94;49.15;97277.00;5031234;28;20045;-70
2023/12/25 06:41:12;;;;;;;1.47;0.90;;;10.40;62.00;;;11.92;48.67;97273.69;5023066;28;20041;-69
2023/12/25 06:43:39;;;;;;;1.20;0.90;;;10.40;61.70;;;11.94;49.04;97269.84;5030075;28;20037;-69
2023/12/25 06:46:07;;;;;;;1.03;0.87;;;10.40;62.00;;;11.95;48.48;97274.16;5031059;28;20049;-69
2023/12/25 06:48:34;;;;;;;1.27;0.87;;;10.40;61.90;;;11.95;48.27;97278.69;5029708;28;20041;-70
2023/12/25 06:51:02;;;;;;;0.70;0.60;;;10.40;61.40;;;11.95;47.78;97284.00;5031330;28;20052;-70
2023/12/25 06:53:30;;;;;;;1.53;1.10;;;10.40;60.70;;;11.91;48.01;97283.53;5031422;28;20048;-69
2023/12/25 06:55:58;;;;;;;1.07;0.80;;;10.40;60.10;;;11.89;48.16;97282.88;5030423;28;20053;-70
2023/12/25 06:58:25;;;;;;;1.43;0.70;;;10.30;60.80;;;11.89;48.33;97274.88;5030201;28;20504;-69
2023/12/25 07:00:53;;;;;;;0.87;0.53;;;10.40;60.80;;;11.90;48.17;97281.88;5030004;28;20061;-69
2023/12/25 07:03:21;;;;;;;1.20;0.90;;;10.40;60.60;;;11.90;47.73;97286.38;5030971;28;20050;-69
2023/12/25 07:05:48;;;;;;;1.40;1.07;;;10.30;60.00;;;11.88;47.72;97296.38;5031004;28;20050;-70
2023/12/25 07:08:17;;;;;;;1.07;0.90;;;10.40;60.10;;;11.78;47.64;97291.25;5030685;28;20064;-70
2023/12/25 07:10:46;;;;;;;2.03;0.90;;;10.30;59.80;;;11.75;47.68;97289.78;5031079;28;20045;-70
2023/12/25 07:13:14;;;;;;;1.50;0.83;;;10.30;59.30;;;11.78;47.83;97288.59;5030945;28;20050;-71
2023/12/25 07:15:41;;;;;;;2.10;1.00;;;10.30;59.90;;;11.80;47.53;97299.91;5031231;28;20037;-72
2023/12/25 07:18:09;;;;;;;0.93;0.70;;;10.30;60.10;;;11.75;47.46;97303.13;5030621;28;20076;-71
2023/12/25 07:20:37;;;;;;;1.37;0.90;;;10.20;60.30;;;11.77;47.75;97298.44;5030622;28;20048;-71
2023/12/25 07:23:04;;;;;;;1.50;0.80;;;10.20;60.40;;;11.77;47.80;97284.28;5030654;28;20531;-70
2023/12/25 07:25:32;;;;;;;1.00;0.90;;;10.20;60.40;;;11.78;47.54;97289.41;5030818;28;20453;-71
2023/12/25 07:27:59;;;;;;;0.93;0.90;;;10.20;60.10;;;11.78;47.57;97300.09;5029337;28;20045;-70
2023/12/25 07:30:27;;;;;;;2.00;0.90;;;10.30;60.60;;;11.76;47.38;97307.44;5030498;28;20049;-70
2023/12/25 07:32:55;;;;;;;0.50;0.50;;;10.30;59.90;;;11.69;47.30;97295.00;5030316;28;20045;-71
2023/12/25 07:35:23;;;;;;;0.93;0.70;;;10.30;59.90;;;11.71;47.59;97308.97;5030671;28;20033;-71
2023/12/25 07:37:50;;;;;;;2.30;1.03;;;10.20;60.30;;;11.72;47.45;97305.31;5030615;28;20044;-70
2023/12/25 07:40:18;;;;;;;1.53;0.90;;;10.20;59.90;;;11.69;47.65;97310.97;5022594;28;20046;-70
2023/12/25 07:42:46;;;;;;;1.57;0.90;;;10.20;59.80;;;11.62;47.57;97310.88;5030761;28;20045;-71
2023/12/25 07:45:14;;;;;;;2.00;1.23;;;10.10;60.20;;;11.62;47.88;97309.03;5030788;28;20493;-70
2023/12/25 07:47:41;;;;;;;1.90;1.10;;;10.20;60.70;;;11.68;48.25;97304.84;5029076;28;20041;-71
2023/12/25 07:50:09;;;;;;;1.07;0.70;;;10.20;60.60;;;11.72;48.13;97318.66;5030379;28;20064;-70
2023/12/25 07:52:37;;;;;;;1.20;0.73;;;10.20;61.00;;;11.72;48.11;97321.31;5030524;28;20390;-71
2023/12/25 07:55:05;;;;;;;0.87;0.80;;;10.20;60.70;;;11.66;48.48;97333.50;5030897;28;20042;-71
2023/12/25 07:57:32;;;;;;;2.07;1.03;;;10.20;61.00;;;11.72;48.29;97332.81;5028910;28;20052;-70
2023/12/25 08:00:00;;;;;;;1.40;1.00;;;10.20;61.50;;;11.79;48.39;97330.28;5029926;28;20071;-70
2023/12/25 08:02:37;;;;;;;1.90;1.00;;;10.30;61.60;;;11.85;48.19;97329.56;5032315;28;20052;-71
2023/12/25 08:05:06;;;;;;;1.53;0.97;;;10.40;61.30;;;11.90;48.47;97343.22;5030557;28;20065;-70
2023/12/25 08:07:34;;;;;;;1.77;1.30;;;10.40;61.50;;;11.90;48.44;97343.22;5030381;28;20053;-71
2023/12/25 08:10:02;;;;;;;1.00;0.90;;;10.40;61.50;;;11.81;48.56;97342.41;5028516;28;20041;-70
2023/12/25 08:12:30;;;;;;;1.57;1.00;;;10.40;61.50;;;11.86;48.47;97339.22;5030244;28;20045;-71
2023/12/25 08:14:57;;;;;;;0.97;0.93;;;10.40;61.60;;;11.90;48.92;97345.88;5030285;28;20044;-70
2023/12/25 08:17:25;;;;;;;0.93;0.73;;;10.50;62.10;;;11.93;48.36;97355.38;5030705;28;20485;-71
2023/12/25 08:19:53;;;;;;;1.40;0.83;;;10.50;61.90;;;11.95;48.69;97354.19;5029934;28;20045;-70
2023/12/25 08:22:20;;;;;;;0.77;0.63;;;10.50;61.60;;;11.91;48.54;97365.41;5031423;28;20436;-71
2023/12/25 08:24:50;;;;;;;0.70;0.60;;;10.50;61.70;;;11.51;49.60;97362.75;5034063;28;20053;-71
2023/12/25 08:27:17;;;;;;;1.37;0.83;;;10.40;62.70;;;11.61;49.51;97365.19;5032818;28;20524;-70
2023/12/25 08:29:45;;;;;;;1.17;0.83;;;10.40;62.70;;;11.71;49.64;97378.31;5033696;28;20037;-71
2023/12/25 08:32:13;;;;;;;1.17;0.70;;;10.50;62.80;;;11.79;49.59;97370.28;5034024;28;20056;-70
2023/12/25 08:34:41;;;;;;;0.97;0.87;;;10.50;62.80;;;11.78;49.68;97371.28;5032415;28;20041;-71
2023/12/25 08:37:09;;;;;;;1.33;0.80;;;10.50;62.80;;;11.86;49.56;97359.72;5033541;28;20493;-71
2023/12/25 08:39:37;;;;;;;1.37;0.80;;;10.60;63.10;;;11.91;49.66;97365.41;5033782;28;20048;-71
2023/12/25 08:42:05;;;;;;;1.77;0.97;;;10.60;63.00;;;11.89;49.82;97367.38;5033872;28;20045;-70
2023/12/25 08:44:32;;;;;;;1.27;0.90;;;10.50;63.40;;;11.96;49.62;97366.53;5034039;28;20049;-71
2023/12/25 08:47:00;;;;;;;1.33;0.57;;;10.60;63.10;;;11.92;49.49;97354.56;5034169;28;20390;-70
2023/12/25 08:49:28;;;;;;;0.93;0.70;;;10.60;63.40;;;11.96;49.93;97368.34;5032431;28;20064;-70
2023/12/25 08:51:56;;;;;;;0.93;0.87;;;10.60;63.30;;;12.01;49.56;97366.81;5032501;28;20041;-70
2023/12/25 08:54:23;;;;;;;1.73;0.70;;;10.70;63.10;;;11.93;50.10;97361.53;5032914;28;20033;-71
2023/12/25 08:56:51;;;;;;;0.57;0.57;;;10.70;63.80;;;11.86;50.09;97384.56;5033306;28;20042;-70
2023/12/25 08:59:19;;;;;;;1.00;0.90;;;10.60;64.10;;;11.70;50.56;97374.81;5034457;28;20045;-70
2023/12/25 09:01:46;;;;;;;5.80;0.77;;;10.60;64.00;;;11.69;50.67;97372.31;5032094;28;20052;-71
2023/12/25 09:04:14;;;;;;;0.80;0.60;;;10.60;64.10;;;11.71;50.87;97367.63;5033053;28;20064;-71
2023/12/25 09:06:41;;;;;;;1.47;0.70;;;10.50;64.70;;;11.81;50.63;97362.94;5033409;28;20042;-71
2023/12/25 09:09:11;;;;;;;1.00;0.70;;;10.60;64.90;;;11.85;50.98;97374.91;5032948;28;20041;-71
2023/12/25 09:11:38;;;;;;;1.30;0.87;;;10.60;64.70;;;11.80;51.17;97387.94;5033010;28;20037;-71
2023/12/25 09:14:06;;;;;;;1.03;0.80;;;10.60;65.20;;;11.85;51.25;97382.91;5033165;28;20042;-71
2023/12/25 09:16:35;;;;;;;2.27;1.03;;;10.60;65.40;;;11.87;50.91;97402.25;5033429;28;20053;-70
2023/12/25 09:19:04;;;;;;;0.93;0.80;;;10.50;65.70;;;11.67;51.46;97396.50;5033577;28;20053;-70
2023/12/25 09:21:41;;;;;;;1.53;0.80;;;10.40;66.10;;;11.68;51.48;97392.00;5031860;28;20034;-71
2023/12/25 09:24:09;;;;;;;0.60;0.50;;;10.40;66.20;;;11.73;51.70;97405.63;5033040;28;20046;-71
2023/12/25 09:26:36;;;;;;;1.30;0.83;;;10.50;66.70;;;11.46;52.47;97421.09;5032904;28;20052;-71
2023/12/25 09:29:04;;;;;;;1.43;0.90;;;10.30;67.40;;;11.38;52.94;97419.28;5032621;28;20052;-71
2023/12/25 09:31:32;;;;;;;1.00;0.80;;;10.30;68.40;;;11.40;53.34;97419.13;5032844;28;20500;-71
2023/12/25 09:33:59;;;;;;;2.33;0.70;;;10.20;68.50;;;11.50;52.95;97421.59;5031591;28;20060;-71
2023/12/25 09:36:29;;;;;;;1.70;1.60;;;10.30;68.60;;;11.51;53.11;97425.91;5032888;28;20470;-70
2023/12/25 09:38:56;;;;;;;2.30;0.80;;;10.30;69.10;;;11.46;53.45;97429.09;5032651;28;20512;-71
2023/12/25 09:41:25;;;;;;;2.50;0.63;;;10.30;69.10;;;11.26;53.87;97425.97;5032522;28;20413;-70
2023/12/25 09:43:55;;;;;;;0.60;0.60;;;10.20;69.80;;;11.37;53.81;97409.63;5032666;28;20038;-71
2023/12/25 09:46:25;;;;;;;0.43;0.40;;;10.30;69.40;;;11.50;53.02;97414.41;5031409;28;20524;-71
2023/12/25 09:48:54;;;;;;;0.57;0.57;;;10.30;69.20;;;11.54;53.31;97422.91;5031023;28;20041;-71
2023/12/25 09:51:24;;;;;;;0.50;0.50;;;10.40;69.20;;;11.58;52.87;97408.22;5031212;28;20049;-71
2023/12/25 09:53:52;;;;;;;0.73;0.67;;;10.40;69.10;;;11.63;53.14;97413.84;5031262;28;20041;-71
2023/12/25 09:56:23;;;;;;;0.63;0.63;;;10.40;68.80;;;11.61;53.28;97406.03;5031766;28;20390;-70
2023/12/25 09:58:54;;;;;;;2.73;0.60;;;10.40;69.20;;;11.61;53.16;97405.19;5030945;28;20053;-71
2023/12/25 10:01:23;;;;;;;0.50;0.50;;;10.40;69.20;;;11.62;53.54;97410.34;5032323;28;20076;-71
2023/12/25 10:03:52;;;;;;;0.60;0.60;;;10.40;69.40;;;11.58;53.76;97401.03;5031946;28;20052;-71
2023/12/25 10:06:20;;;;;;;0.80;0.50;;;10.30;69.70;;;11.59;53.46;97401.88;5030972;28;20064;-69
2023/12/25 10:08:49;;;;;;;0.53;0.53;;;10.40;69.70;;;11.55;53.63;97401.38;5031695;28;20493;-70
2023/12/25 10:11:17;;;;;;;1.03;0.67;;;10.40;69.80;;;11.59;53.67;97396.53;5030952;28;20049;-69
2023/12/25 10:13:44;;;;;;;1.50;0.70;;;10.40;69.90;;;11.72;53.47;97393.31;5031798;28;20041;-70
2023/12/25 10:16:12;;;;;;;0.97;0.80;;;10.50;69.80;;;11.81;53.43;97395.75;5031939;28;20060;-70
2023/12/25 10:18:40;;;;;;;0.60;0.60;;;10.50;69.70;;;11.81;53.73;97390.44;5031676;28;20047;-69
2023/12/25 10:21:09;;;;;;;0.50;0.50;;;10.60;69.40;;;11.76;53.48;97390.13;5030723;28;20053;-70
2023/12/25 10:23:37;;;;;;;0.40;0.40;;;10.60;69.20;;;11.67;53.79;97383.19;5031597;28;20049;-69